Time;durP1;ratioP1;P1;durP2;ratioP2;P2;SDS_P1;SDS_P2;PMS_P1;PMS_P2;Temp;Humidity;BMP_temperature;BMP_pressure;BME280_temperature;BME280_humidity;BME280_pressure;Samples;Min_cycle;Max_cycle;Signal;HPM_P1;HPM_P2
2024/03/01 00:00:21;;;;;;;7.03;5.65;;;5.90;99.90;;;;;;5071750;28;20239;-62
2024/03/01 00:02:48;;;;;;;10.15;6.35;;;5.80;99.90;;;;;;5071742;28;20296;-62
2024/03/01 00:05:14;;;;;;;6.60;4.75;;;5.90;99.90;;;;;;5071653;28;20178;-62
2024/03/01 00:07:40;;;;;;;6.40;4.93;;;5.90;99.90;;;;;;5071281;28;20181;-62
2024/03/01 00:10:07;;;;;;;6.13;5.00;;;5.90;99.90;;;;;;5071602;28;20282;-62
2024/03/01 00:12:33;;;;;;;11.57;5.30;;;5.70;99.90;;;;;;5071365;28;20763;-62
2024/03/01 00:14:59;;;;;;;9.85;6.53;;;5.50;99.90;;;;;;5071449;28;20639;-62
2024/03/01 00:17:25;;;;;;;8.90;5.37;;;5.50;99.90;;;;;;5071199;28;20174;-62
2024/03/01 00:19:50;;;;;;;8.17;6.17;;;5.60;99.90;;;;;;5071011;28;20169;-62
2024/03/01 00:22:16;;;;;;;6.80;5.43;;;5.60;99.90;;;;;;5071320;28;20593;-62
2024/03/01 00:24:42;;;;;;;12.70;5.67;;;5.60;99.90;;;;;;5071432;28;20275;-62
2024/03/01 00:27:08;;;;;;;7.13;5.00;;;5.60;99.90;;;;;;5071157;28;20567;-62
2024/03/01 00:29:33;;;;;;;18.20;5.73;;;5.70;99.90;;;;;;5071012;28;20799;-62
2024/03/01 00:31:59;;;;;;;8.40;5.80;;;5.50;99.90;;;;;;5071392;28;20648;-62
2024/03/01 00:34:25;;;;;;;5.20;4.10;;;5.60;99.90;;;;;;5071196;28;20818;-62
2024/03/01 00:36:50;;;;;;;9.83;5.10;;;5.60;99.90;;;;;;5071159;28;20165;-62
2024/03/01 00:39:16;;;;;;;10.23;5.00;;;5.60;99.90;;;;;;5070990;28;20169;-62
2024/03/01 00:41:42;;;;;;;15.97;4.50;;;5.80;99.90;;;;;;5071248;28;20166;-62
2024/03/01 00:44:09;;;;;;;8.10;4.90;;;5.80;99.90;;;;;;5070969;28;20660;-62
2024/03/01 00:46:37;;;;;;;7.25;4.95;;;5.80;99.90;;;;;;5071239;28;20278;-62
2024/03/01 00:49:03;;;;;;;7.90;4.38;;;5.80;99.90;;;;;;5070973;28;20177;-62
2024/03/01 00:51:28;;;;;;;5.47;4.17;;;5.70;99.90;;;;;;5071081;28;20311;-62
2024/03/01 00:53:54;;;;;;;8.10;5.87;;;5.80;99.90;;;;;;5071493;28;20182;-62
2024/03/01 00:56:20;;;;;;;11.83;5.77;;;5.90;99.90;;;;;;5071000;28;20188;-62
2024/03/01 00:58:45;;;;;;;11.07;5.03;;;5.90;99.90;;;;;;5070780;28;20170;-62
2024/03/01 01:01:12;;;;;;;9.00;5.40;;;5.90;99.90;;;;;;5071167;28;20184;-62
2024/03/01 01:03:38;;;;;;;10.30;5.30;;;5.80;99.90;;;;;;5070744;28;20300;-62
2024/03/01 01:06:03;;;;;;;6.83;4.87;;;5.90;99.90;;;;;;5071020;28;20264;-62
2024/03/01 01:08:29;;;;;;;7.83;5.03;;;5.90;99.90;;;;;;5070699;28;20165;-62
2024/03/01 01:10:55;;;;;;;14.37;5.93;;;5.80;99.90;;;;;;5070744;28;20960;-62
2024/03/01 01:13:21;;;;;;;9.27;5.20;;;5.80;99.90;;;;;;5070831;28;20635;-62
2024/03/01 01:15:47;;;;;;;17.98;5.28;;;5.80;99.90;;;;;;5070983;28;20595;-62
2024/03/01 01:18:14;;;;;;;10.47;6.03;;;5.90;99.90;;;;;;5070801;28;20173;-62
2024/03/01 01:20:39;;;;;;;8.60;4.72;;;5.90;99.90;;;;;;5070812;28;20253;-62
2024/03/01 01:23:05;;;;;;;9.33;4.83;;;6.00;99.90;;;;;;5070653;28;20289;-62
2024/03/01 01:25:30;;;;;;;7.43;4.30;;;6.10;99.90;;;;;;5052755;28;20213;-62
2024/03/01 01:27:56;;;;;;;7.00;5.10;;;6.10;99.90;;;;;;5070451;28;20165;-62
2024/03/01 01:30:22;;;;;;;11.63;6.10;;;6.00;99.90;;;;;;5070614;28;20201;-62
2024/03/01 01:32:47;;;;;;;13.03;7.20;;;6.00;99.90;;;;;;5073757;28;20216;-62
2024/03/01 01:35:13;;;;;;;9.30;5.93;;;6.10;99.90;;;;;;5074378;28;20692;-62
2024/03/01 01:37:38;;;;;;;7.63;6.57;;;6.20;99.90;;;;;;5074226;28;20165;-62
2024/03/01 01:40:05;;;;;;;12.50;6.17;;;6.30;99.90;;;;;;5074395;28;20227;-62
2024/03/01 01:42:31;;;;;;;10.20;7.55;;;6.20;99.90;;;;;;5074305;28;20662;-62
2024/03/01 01:44:57;;;;;;;11.40;6.57;;;6.20;99.90;;;;;;5074547;28;20179;-62
2024/03/01 01:47:23;;;;;;;11.57;6.50;;;6.30;99.90;;;;;;5073984;28;20760;-62
2024/03/01 01:49:49;;;;;;;8.47;6.77;;;6.20;99.90;;;;;;5074207;28;20183;-62
2024/03/01 01:52:15;;;;;;;10.93;6.93;;;6.20;99.90;;;;;;5074085;28;20903;-62
2024/03/01 01:54:42;;;;;;;13.45;6.80;;;6.30;99.90;;;;;;5074018;28;20179;-62
2024/03/01 01:57:09;;;;;;;13.00;6.30;;;6.30;99.90;;;;;;5074161;28;20198;-62
2024/03/01 01:59:36;;;;;;;12.60;6.20;;;6.40;99.90;;;;;;5073703;28;20172;-62
2024/03/01 02:02:03;;;;;;;16.40;6.00;;;6.40;99.90;;;;;;5073813;28;20179;-62
2024/03/01 02:04:30;;;;;;;13.85;7.75;;;6.40;99.90;;;;;;5074790;28;20703;-63
2024/03/01 02:06:55;;;;;;;11.52;5.25;;;6.40;99.90;;;;;;5074504;28;20218;-62
2024/03/01 02:09:21;;;;;;;15.33;6.67;;;6.30;99.90;;;;;;5075923;28;20177;-62
2024/03/01 02:11:47;;;;;;;10.37;5.90;;;6.20;99.90;;;;;;5074658;28;20195;-62
2024/03/01 02:14:12;;;;;;;12.10;6.30;;;6.10;99.90;;;;;;5075731;28;20678;-63
2024/03/01 02:16:38;;;;;;;7.27;5.43;;;6.10;99.90;;;;;;5076197;28;20169;-62
2024/03/01 02:19:09;;;;;;;14.17;5.63;;;6.20;99.90;;;;;;5075103;28;20241;-63
2024/03/01 02:21:38;;;;;;;8.70;6.30;;;6.30;99.90;;;;;;5075598;28;20195;-63
2024/03/01 02:24:04;;;;;;;9.55;6.13;;;6.30;99.90;;;;;;5074459;28;20220;-62
2024/03/01 02:26:31;;;;;;;9.60;5.63;;;6.30;99.90;;;;;;5074232;28;20175;-62
2024/03/01 02:28:57;;;;;;;13.00;8.35;;;6.40;99.90;;;;;;5074869;28;20543;-63
2024/03/01 02:31:23;;;;;;;13.33;8.97;;;6.40;99.90;;;;;;5075047;28;20197;-63
2024/03/01 02:33:48;;;;;;;14.97;8.80;;;6.40;99.90;;;;;;5075052;28;20595;-62
2024/03/01 02:36:14;;;;;;;17.60;9.40;;;6.30;99.90;;;;;;5075131;28;20169;-62
2024/03/01 02:38:39;;;;;;;18.80;10.80;;;6.20;99.90;;;;;;5074869;28;20178;-62
2024/03/01 02:41:05;;;;;;;13.90;8.50;;;6.30;99.90;;;;;;5074866;28;20180;-62
2024/03/01 02:43:31;;;;;;;17.40;10.77;;;6.30;99.90;;;;;;5074420;28;20189;-62
2024/03/01 02:45:56;;;;;;;20.53;9.47;;;6.40;99.90;;;;;;5074747;28;20756;-62
2024/03/01 02:48:22;;;;;;;18.70;10.23;;;6.50;99.90;;;;;;5074645;28;20172;-62
2024/03/01 02:50:48;;;;;;;13.17;9.23;;;6.60;99.90;;;;;;5075209;28;20200;-62
2024/03/01 02:53:13;;;;;;;13.90;8.90;;;6.50;99.90;;;;;;5074514;28;20706;-62
2024/03/01 02:55:39;;;;;;;25.53;10.73;;;6.60;99.90;;;;;;5074167;28;20253;-62
2024/03/01 02:58:05;;;;;;;19.43;10.63;;;6.50;99.90;;;;;;5073906;28;20257;-63
2024/03/01 03:00:31;;;;;;;13.68;8.35;;;6.50;99.90;;;;;;5074886;28;20172;-63
2024/03/01 03:02:56;;;;;;;13.73;10.00;;;6.70;99.90;;;;;;5074349;28;20208;-62
2024/03/01 03:05:22;;;;;;;13.63;7.63;;;6.70;99.90;;;;;;5074102;28;20182;-62
2024/03/01 03:07:48;;;;;;;17.57;10.57;;;6.80;99.90;;;;;;5074198;28;20173;-62
2024/03/01 03:10:17;;;;;;;18.90;10.17;;;6.80;99.90;;;;;;5073289;28;20201;-62
2024/03/01 03:12:44;;;;;;;17.77;10.38;;;6.80;99.90;;;;;;5073468;28;20294;-62
2024/03/01 03:15:10;;;;;;;19.52;9.38;;;6.80;99.90;;;;;;5074284;28;20180;-62
2024/03/01 03:17:36;;;;;;;10.77;8.13;;;6.80;99.90;;;;;;5073036;28;20180;-63
2024/03/01 03:20:09;;;;;;;11.60;9.60;;;6.90;99.90;;;;;;5073426;28;20422;-62
2024/03/01 03:22:36;;;;;;;13.57;9.13;;;6.80;99.90;;;;;;5073682;28;20195;-62
2024/03/01 03:25:02;;;;;;;13.60;8.50;;;6.80;99.90;;;;;;5072893;28;20167;-62
2024/03/01 03:27:28;;;;;;;8.63;6.80;;;6.80;99.90;;;;;;5073038;28;20176;-62
2024/03/01 03:29:53;;;;;;;16.33;8.00;;;6.80;99.90;;;;;;5073969;28;20448;-62
2024/03/01 03:32:21;;;;;;;14.03;9.40;;;6.80;99.90;;;;;;5073277;28;20191;-62
2024/03/01 03:34:47;;;;;;;11.23;8.57;;;6.80;99.90;;;;;;5074825;28;20180;-62
2024/03/01 03:37:12;;;;;;;15.48;8.73;;;6.80;99.90;;;;;;5074033;28;20176;-62
2024/03/01 03:39:38;;;;;;;13.30;7.70;;;6.90;99.90;;;;;;5073422;28;20177;-62
2024/03/01 03:42:04;;;;;;;13.57;7.67;;;7.00;99.90;;;;;;5073356;28;20176;-62
2024/03/01 03:44:29;;;;;;;14.20;7.63;;;7.00;99.80;;;;;;5072495;28;20613;-62
2024/03/01 03:46:55;;;;;;;13.90;8.37;;;7.10;99.70;;;;;;5073469;28;20220;-62
2024/03/01 03:49:21;;;;;;;12.87;7.77;;;7.10;99.70;;;;;;5073517;28;20228;-63
2024/03/01 03:51:46;;;;;;;12.80;8.17;;;6.90;99.90;;;;;;5072953;28;20289;-62
2024/03/01 03:54:15;;;;;;;12.43;7.63;;;6.90;99.90;;;;;;5072016;28;20227;-62
2024/03/01 03:56:42;;;;;;;10.85;7.00;;;6.90;99.90;;;;;;5072405;28;20167;-62
2024/03/01 03:59:08;;;;;;;15.40;8.65;;;6.90;99.90;;;;;;5073912;28;20654;-63
2024/03/01 04:01:33;;;;;;;11.80;8.23;;;7.00;99.90;;;;;;5072400;28;20266;-62
2024/03/01 04:03:59;;;;;;;8.37;5.73;;;7.10;99.90;;;;;;5072817;28;20254;-62
2024/03/01 04:06:25;;;;;;;13.40;7.13;;;7.10;99.90;;;;;;5072758;28;20179;-63
2024/03/01 04:08:50;;;;;;;11.93;7.87;;;7.10;99.90;;;;;;5072733;28;20222;-62
2024/03/01 04:11:16;;;;;;;12.20;7.97;;;7.00;99.90;;;;;;5073001;28;20346;-62
2024/03/01 04:13:42;;;;;;;9.37;5.87;;;6.90;99.90;;;;;;5072586;28;20617;-63
2024/03/01 04:16:07;;;;;;;7.73;6.77;;;6.80;99.90;;;;;;5073197;28;20588;-63
2024/03/01 04:18:33;;;;;;;12.33;6.73;;;6.80;99.90;;;;;;5072968;28;20176;-63
2024/03/01 04:20:59;;;;;;;12.00;6.00;;;6.80;99.90;;;;;;5072624;28;20179;-63
2024/03/01 04:23:26;;;;;;;8.13;6.25;;;6.80;99.90;;;;;;5073081;28;20661;-63
2024/03/01 04:25:53;;;;;;;16.55;4.80;;;6.90;99.90;;;;;;5072621;28;20234;-62
2024/03/01 04:28:19;;;;;;;10.85;4.90;;;7.00;99.90;;;;;;5072555;28;20198;-63
2024/03/01 04:30:45;;;;;;;8.07;4.10;;;7.00;99.90;;;;;;5072994;28;20205;-63
2024/03/01 04:33:11;;;;;;;9.73;5.97;;;7.00;99.90;;;;;;5072538;28;20197;-62
2024/03/01 04:35:37;;;;;;;5.18;4.45;;;7.00;99.90;;;;;;5071810;28;20438;-62
2024/03/01 04:38:04;;;;;;;6.53;4.97;;;6.90;99.90;;;;;;5073613;28;20175;-63
2024/03/01 04:40:29;;;;;;;6.05;5.30;;;6.90;99.90;;;;;;5072690;28;20242;-63
2024/03/01 04:42:55;;;;;;;6.40;4.97;;;6.90;99.90;;;;;;5072653;28;20205;-62
2024/03/01 04:45:21;;;;;;;6.97;3.67;;;6.90;99.90;;;;;;5072695;28;20232;-63
2024/03/01 04:47:47;;;;;;;7.70;3.85;;;6.90;99.90;;;;;;5073072;28;20181;-62
2024/03/01 04:50:13;;;;;;;9.13;4.43;;;6.90;99.90;;;;;;5073436;28;20204;-62
2024/03/01 04:52:38;;;;;;;4.00;3.67;;;7.00;99.90;;;;;;5071800;28;20220;-62
2024/03/01 04:55:05;;;;;;;4.40;2.80;;;6.90;99.90;;;;;;5072990;28;20172;-63
2024/03/01 04:57:32;;;;;;;3.97;3.50;;;6.80;99.90;;;;;;5072683;28;20170;-62
2024/03/01 04:59:57;;;;;;;7.35;3.80;;;6.90;99.90;;;;;;5071280;28;20226;-63
2024/03/01 05:02:23;;;;;;;3.50;2.63;;;6.90;99.90;;;;;;5071914;28;20548;-62
2024/03/01 05:04:49;;;;;;;6.03;2.73;;;6.90;99.90;;;;;;5073148;28;20245;-62
2024/03/01 05:07:14;;;;;;;4.43;3.20;;;6.90;99.90;;;;;;5077198;28;20581;-62
2024/03/01 05:09:42;;;;;;;5.40;3.50;;;6.90;99.90;;;;;;5075148;28;20219;-63
2024/03/01 05:12:13;;;;;;;5.32;2.90;;;6.90;99.90;;;;;;5075813;28;20169;-62
2024/03/01 05:14:40;;;;;;;4.78;3.17;;;6.90;99.90;;;;;;5076242;28;20612;-62
2024/03/01 05:17:09;;;;;;;3.88;2.97;;;6.90;99.90;;;;;;5076781;28;20540;-62
2024/03/01 05:19:38;;;;;;;4.82;3.35;;;6.80;99.90;;;;;;5076884;28;20333;-62
2024/03/01 05:22:07;;;;;;;4.28;3.20;;;6.80;99.90;;;;;;5076806;28;20176;-62
2024/03/01 05:24:33;;;;;;;4.60;3.33;;;6.70;99.90;;;;;;5075854;28;20280;-62
2024/03/01 05:26:59;;;;;;;8.07;3.07;;;6.80;99.90;;;;;;5076297;28;20249;-63
2024/03/01 05:29:26;;;;;;;5.30;4.22;;;6.80;99.90;;;;;;5075172;28;20228;-62
2024/03/01 05:31:52;;;;;;;10.43;3.80;;;6.80;99.90;;;;;;5075840;28;20208;-63
2024/03/01 05:34:17;;;;;;;6.00;4.67;;;6.70;99.90;;;;;;5076677;28;20193;-62
2024/03/01 05:36:43;;;;;;;6.50;4.00;;;6.70;99.90;;;;;;5076227;28;20204;-62
2024/03/01 05:39:18;;;;;;;5.70;3.47;;;6.80;99.90;;;;;;5077017;28;20159;-62
2024/03/01 05:41:47;;;;;;;4.32;3.92;;;6.70;99.90;;;;;;5075773;28;20229;-63
2024/03/01 05:44:13;;;;;;;8.35;4.50;;;6.80;99.90;;;;;;5075068;28;20712;-62
2024/03/01 05:46:40;;;;;;;3.97;3.67;;;6.70;99.90;;;;;;5075104;28;20176;-62
2024/03/01 05:49:06;;;;;;;6.47;4.30;;;6.80;99.90;;;;;;5075362;28;20183;-62
2024/03/01 05:51:31;;;;;;;6.50;4.10;;;6.80;99.90;;;;;;5076395;28;20297;-62
2024/03/01 05:53:57;;;;;;;5.20;3.67;;;6.70;99.90;;;;;;5074797;28;20731;-62
2024/03/01 05:56:26;;;;;;;7.90;4.60;;;6.70;99.90;;;;;;5075537;28;20468;-62
2024/03/01 05:58:51;;;;;;;10.07;3.47;;;6.70;99.90;;;;;;5075307;28;20175;-62
2024/03/01 06:01:18;;;;;;;5.33;3.53;;;6.80;99.90;;;;;;5075360;28;20260;-62
2024/03/01 06:03:44;;;;;;;4.32;2.97;;;6.80;99.90;;;;;;5075229;28;20272;-63
2024/03/01 06:06:14;;;;;;;4.63;3.43;;;6.80;99.90;;;;;;5075345;28;20267;-62
2024/03/01 06:08:40;;;;;;;7.22;4.90;;;6.90;99.90;;;;;;5075271;28;20210;-62
2024/03/01 06:11:07;;;;;;;6.03;4.40;;;6.90;99.90;;;;;;5075194;28;20639;-63
2024/03/01 06:13:33;;;;;;;5.05;3.35;;;7.00;99.90;;;;;;5074973;28;20440;-62
2024/03/01 06:15:59;;;;;;;4.80;3.77;;;7.00;99.90;;;;;;5075669;28;20177;-62
2024/03/01 06:18:24;;;;;;;4.40;3.53;;;7.00;99.90;;;;;;5074960;28;20798;-63
2024/03/01 06:20:50;;;;;;;4.30;3.63;;;7.00;99.90;;;;;;5074989;28;20634;-62
2024/03/01 06:23:17;;;;;;;3.77;2.90;;;6.90;99.90;;;;;;5075436;28;20196;-63
2024/03/01 06:25:43;;;;;;;4.88;3.90;;;6.90;99.90;;;;;;5074728;28;20223;-62
2024/03/01 06:28:09;;;;;;;5.97;4.10;;;7.00;99.90;;;;;;5074673;28;20188;-62
2024/03/01 06:30:35;;;;;;;4.10;3.30;;;7.10;99.90;;;;;;5074781;28;20218;-62
2024/03/01 06:33:00;;;;;;;3.67;3.27;;;7.10;99.90;;;;;;5074923;28;20603;-62
2024/03/01 06:35:26;;;;;;;6.60;4.07;;;7.00;99.90;;;;;;5074856;28;20653;-62
2024/03/01 06:37:52;;;;;;;4.93;3.60;;;6.90;99.90;;;;;;5075723;28;20173;-62
2024/03/01 06:40:17;;;;;;;4.47;3.47;;;6.90;99.90;;;;;;5074334;28;20665;-62
2024/03/01 06:42:43;;;;;;;4.97;4.37;;;6.90;99.90;;;;;;5074344;28;20440;-62
2024/03/01 06:45:10;;;;;;;6.17;3.00;;;7.00;99.90;;;;;;5075691;28;20177;-63
2024/03/01 06:47:36;;;;;;;8.27;3.53;;;7.10;99.90;;;;;;5072954;28;20181;-63
2024/03/01 06:50:03;;;;;;;4.13;3.80;;;7.20;99.90;;;;;;5074753;28;20211;-63
2024/03/01 06:52:28;;;;;;;7.28;4.13;;;7.20;99.90;;;;;;5075068;28;20419;-62
2024/03/01 06:54:54;;;;;;;6.43;3.70;;;7.20;99.90;;;;;;5075128;28;20176;-63
2024/03/01 06:57:19;;;;;;;5.30;4.13;;;7.20;99.90;;;;;;5075365;28;20171;-62
2024/03/01 06:59:45;;;;;;;3.40;2.90;;;7.20;99.90;;;;;;5075015;28;20180;-62
2024/03/01 07:02:11;;;;;;;6.90;4.00;;;7.20;99.90;;;;;;5075318;28;20274;-62
2024/03/01 07:04:37;;;;;;;4.15;3.65;;;7.20;99.90;;;;;;5075259;28;20192;-62
2024/03/01 07:07:03;;;;;;;5.70;3.50;;;7.20;99.90;;;;;;5074810;28;20257;-62
2024/03/01 07:09:31;;;;;;;4.75;3.10;;;7.20;99.90;;;;;;5074170;28;20352;-62
2024/03/01 07:11:57;;;;;;;6.22;4.78;;;7.20;99.90;;;;;;5074726;28;20205;-63
2024/03/01 07:14:22;;;;;;;9.63;4.50;;;7.30;99.90;;;;;;5074443;28;20185;-62
2024/03/01 07:16:48;;;;;;;10.47;6.73;;;7.20;99.90;;;;;;5074282;28;20172;-62
2024/03/01 07:19:13;;;;;;;9.17;6.67;;;7.20;99.90;;;;;;5074774;28;20227;-63
2024/03/01 07:21:39;;;;;;;9.73;7.33;;;7.30;99.90;;;;;;5074439;28;20220;-63
2024/03/01 07:24:05;;;;;;;9.40;6.70;;;7.30;99.90;;;;;;5074871;28;20662;-63
2024/03/01 07:26:31;;;;;;;8.40;6.40;;;7.40;99.90;;;;;;5074536;28;20177;-63
2024/03/01 07:28:56;;;;;;;9.30;6.70;;;7.30;99.90;;;;;;5072514;28;20169;-62
2024/03/01 07:31:22;;;;;;;7.30;6.20;;;7.30;99.90;;;;;;5074746;28;20284;-63
2024/03/01 07:33:48;;;;;;;8.67;7.53;;;7.30;99.90;;;;;;5074902;28;20189;-63
2024/03/01 07:36:13;;;;;;;7.27;4.70;;;7.20;99.90;;;;;;5073509;28;20592;-62
2024/03/01 07:38:39;;;;;;;9.13;6.23;;;7.20;99.90;;;;;;5073086;28;20203;-62
2024/03/01 07:41:06;;;;;;;11.77;6.40;;;7.10;99.90;;;;;;5073012;28;20647;-62
2024/03/01 07:43:31;;;;;;;8.05;6.25;;;7.10;99.90;;;;;;5073206;28;20947;-62
2024/03/01 07:45:57;;;;;;;10.17;5.97;;;6.90;99.90;;;;;;5073575;28;20181;-62
2024/03/01 07:48:24;;;;;;;11.73;10.53;;;6.80;99.90;;;;;;5073657;28;20181;-62
2024/03/01 07:50:49;;;;;;;9.85;6.43;;;6.70;99.90;;;;;;5073225;28;20254;-62
2024/03/01 07:53:15;;;;;;;7.67;5.47;;;6.80;99.90;;;;;;5073272;28;20663;-62
2024/03/01 07:55:41;;;;;;;9.53;6.87;;;6.80;99.90;;;;;;5073450;28;20203;-62
2024/03/01 07:58:06;;;;;;;9.20;6.80;;;6.80;99.90;;;;;;5072857;28;20215;-62
2024/03/01 08:00:32;;;;;;;7.70;6.90;;;6.90;99.90;;;;;;5072966;28;20172;-62
2024/03/01 08:03:07;;;;;;;8.60;7.13;;;6.90;99.90;;;;;;5073226;28;20209;-63
2024/03/01 08:05:34;;;;;;;10.50;7.43;;;6.90;99.90;;;;;;5072677;28;20262;-62
2024/03/01 08:08:00;;;;;;;9.55;8.27;;;6.90;99.90;;;;;;5072249;28;20199;-62
2024/03/01 08:10:30;;;;;;;12.03;7.00;;;7.00;99.90;;;;;;5073135;28;20197;-62
2024/03/01 08:12:56;;;;;;;6.57;5.18;;;7.10;99.90;;;;;;5073580;28;20544;-62
2024/03/01 08:15:28;;;;;;;10.15;6.13;;;7.10;99.90;;;;;;5072897;28;20189;-62
2024/03/01 08:17:54;;;;;;;8.95;6.50;;;7.10;99.90;;;;;;5072814;28;20179;-62
2024/03/01 08:21:03;;;;;;;8.10;5.05;;;7.10;99.90;;;;;;5072902;28;20223;-62
2024/03/01 08:23:40;;;;;;;8.57;5.75;;;7.10;99.90;;;;;;5072352;28;20197;-62
2024/03/01 08:26:14;;;;;;;13.13;6.65;;;7.10;99.90;;;;;;5073924;28;20179;-63
2024/03/01 08:28:42;;;;;;;7.75;5.45;;;7.30;99.90;;;;;;5072700;28;20170;-62
2024/03/01 08:31:15;;;;;;;10.10;7.53;;;7.30;99.90;;;;;;5073221;28;20201;-63
2024/03/01 08:33:41;;;;;;;7.80;6.57;;;7.20;99.90;;;;;;5072329;28;20628;-62
2024/03/01 08:36:08;;;;;;;6.93;5.00;;;7.20;99.90;;;;;;5073307;28;20205;-61
2024/03/01 08:38:41;;;;;;;7.30;5.68;;;7.20;99.90;;;;;;5072954;28;20188;-62
2024/03/01 08:41:10;;;;;;;6.47;5.00;;;7.20;99.90;;;;;;5072497;28;20189;-62
2024/03/01 08:43:36;;;;;;;6.30;5.32;;;7.20;99.90;;;;;;5073833;28;20194;-62
2024/03/01 08:46:03;;;;;;;6.00;4.50;;;7.30;99.90;;;;;;5073562;28;20222;-61
2024/03/01 08:48:33;;;;;;;5.15;4.65;;;7.40;99.90;;;;;;5073210;28;20248;-61
2024/03/01 08:51:00;;;;;;;5.13;3.58;;;7.50;99.90;;;;;;5072453;28;20189;-62
2024/03/01 08:53:37;;;;;;;4.82;3.63;;;7.60;99.90;;;;;;5072343;28;20178;-62
2024/03/01 08:56:04;;;;;;;4.68;3.13;;;7.70;99.90;;;;;;5073146;28;20174;-62
2024/03/01 08:58:30;;;;;;;9.75;3.35;;;7.60;99.90;;;;;;5072463;28;20183;-61
2024/03/01 09:00:57;;;;;;;3.33;3.03;;;7.70;99.90;;;;;;5073099;28;20177;-61
2024/03/01 09:03:24;;;;;;;3.15;2.30;;;7.70;99.90;;;;;;5072257;28;20213;-62
2024/03/01 09:05:55;;;;;;;3.05;2.70;;;7.70;99.90;;;;;;5072853;28;20218;-62
2024/03/01 09:08:41;;;;;;;4.03;2.28;;;7.80;99.90;;;;;;5073018;28;20184;-62
2024/03/01 09:11:12;;;;;;;3.40;2.45;;;7.90;99.90;;;;;;5070635;28;20213;-62
2024/03/01 09:13:37;;;;;;;3.65;2.30;;;7.90;99.90;;;;;;5072363;28;20219;-61
2024/03/01 09:16:12;;;;;;;6.43;4.17;;;7.90;99.90;;;;;;5072110;28;20165;-62
2024/03/01 09:18:49;;;;;;;8.82;3.65;;;7.80;99.90;;;;;;5072053;28;20166;-61
2024/03/01 09:21:43;;;;;;;3.70;3.33;;;7.80;99.90;;;;;;5072635;28;20169;-62
2024/03/01 09:24:11;;;;;;;13.65;4.53;;;7.80;99.90;;;;;;5072610;28;20200;-62
2024/03/01 09:26:37;;;;;;;34.60;6.97;;;7.90;99.90;;;;;;5072070;28;20674;-62
2024/03/01 09:29:04;;;;;;;20.03;5.90;;;8.00;99.90;;;;;;5071805;28;20256;-62
2024/03/01 09:31:34;;;;;;;12.05;4.15;;;7.90;99.90;;;;;;5072400;28;20200;-62
2024/03/01 09:34:10;;;;;;;10.70;4.70;;;7.90;99.90;;;;;;5071739;28;20194;-62
2024/03/01 09:36:36;;;;;;;9.60;3.90;;;7.80;99.90;;;;;;5071887;28;20553;-62
2024/03/01 09:39:05;;;;;;;3.80;3.03;;;7.80;99.90;;;;;;5071582;28;20180;-62
2024/03/01 09:41:58;;;;;;;2.67;2.47;;;7.70;99.90;;;;;;5072117;28;20173;-62
2024/03/01 09:44:42;;;;;;;3.40;3.00;;;7.70;99.90;;;;;;5071858;28;20209;-62
2024/03/01 09:47:24;;;;;;;2.70;2.33;;;7.60;99.90;;;;;;5071206;28;20176;-62
2024/03/01 09:49:49;;;;;;;3.20;2.47;;;7.60;99.90;;;;;;5071943;28;20239;-62
2024/03/01 09:52:21;;;;;;;3.90;2.03;;;7.60;99.90;;;;;;5072163;28;20572;-62
2024/03/01 09:55:18;;;;;;;2.10;1.90;;;7.60;99.90;;;;;;5075130;28;20273;-62
2024/03/01 09:58:01;;;;;;;2.45;2.25;;;7.80;99.90;;;;;;5076448;28;20169;-62
2024/03/01 10:00:33;;;;;;;3.30;3.00;;;8.00;99.90;;;;;;5076459;28;20550;-62
2024/03/01 10:03:25;;;;;;;2.47;1.65;;;8.10;99.90;;;;;;5075282;28;20231;-62
2024/03/01 10:06:13;;;;;;;2.03;1.70;;;8.00;99.90;;;;;;5076135;28;20310;-62
2024/03/01 10:09:12;;;;;;;2.25;1.70;;;8.00;99.90;;;;;;5075920;28;20647;-62
2024/03/01 10:11:49;;;;;;;2.22;1.77;;;7.90;99.90;;;;;;5076392;28;20270;-62
2024/03/01 10:14:48;;;;;;;2.63;1.73;;;7.80;99.90;;;;;;5074997;28;20224;-63
2024/03/01 10:17:46;;;;;;;1.88;1.65;;;7.80;99.90;;;;;;5075017;28;20177;-62
2024/03/01 10:20:24;;;;;;;1.70;1.60;;;7.70;99.90;;;;;;5075502;28;20669;-62
2024/03/01 10:23:04;;;;;;;2.90;2.45;;;7.90;99.90;;;;;;5075214;28;20282;-62
2024/03/01 10:25:41;;;;;;;2.08;1.88;;;8.10;99.90;;;;;;5073895;28;20229;-62
2024/03/01 10:28:37;;;;;;;2.28;2.05;;;8.20;99.90;;;;;;5075238;28;20177;-62
2024/03/01 10:31:33;;;;;;;1.20;1.10;;;8.40;99.90;;;;;;5075068;28;20220;-62
2024/03/01 10:34:47;;;;;;;3.70;3.10;;;8.40;99.90;;;;;;5074381;28;20729;-62
2024/03/01 10:37:29;;;;;;;2.50;2.03;;;8.50;99.90;;;;;;5075579;28;20173;-62
2024/03/01 10:40:17;;;;;;;1.95;1.85;;;8.60;99.90;;;;;;5076259;28;20217;-62
2024/03/01 10:42:45;;;;;;;0.70;0.70;;;8.60;99.90;;;;;;5076174;28;20212;-62
2024/03/01 10:45:20;;;;;;;1.63;1.20;;;8.60;99.90;;;;;;5075872;28;20170;-62
2024/03/01 10:47:48;;;;;;;0.98;0.98;;;8.40;99.90;;;;;;5075525;28;20657;-63
2024/03/01 10:50:18;;;;;;;1.40;1.30;;;8.50;99.90;;;;;;5075684;28;20211;-63
2024/03/01 10:52:58;;;;;;;1.02;0.85;;;8.60;99.90;;;;;;5076233;28;20666;-62
2024/03/01 10:55:28;;;;;;;0.60;0.60;;;8.40;99.90;;;;;;5076018;28;20169;-62
2024/03/01 10:58:18;;;;;;;1.20;1.20;;;8.20;99.90;;;;;;5075296;28;20581;-62
2024/03/01 11:00:56;;;;;;;1.45;1.30;;;8.30;99.90;;;;;;5076211;28;20276;-63
2024/03/01 11:03:35;;;;;;;2.38;1.23;;;8.40;99.90;;;;;;5075403;28;20209;-63
2024/03/01 11:06:25;;;;;;;1.52;1.13;;;8.20;99.90;;;;;;5075821;28;20192;-62
2024/03/01 11:09:14;;;;;;;1.50;1.40;;;8.00;99.90;;;;;;5075423;28;20643;-63
2024/03/01 11:12:15;;;;;;;1.75;0.88;;;8.10;99.90;;;;;;5075266;28;20197;-63
2024/03/01 11:15:19;;;;;;;0.60;0.60;;;8.10;99.90;;;;;;5075763;28;20188;-63
2024/03/01 11:17:48;;;;;;;0.80;0.80;;;8.10;99.90;;;;;;5041152;28;20192;-62
2024/03/01 11:20:31;;;;;;;1.27;1.10;;;8.20;99.90;;;;;;5074762;28;20583;-63
2024/03/01 11:23:07;;;;;;;2.33;1.55;;;8.10;99.90;;;;;;5075416;28;20204;-63
2024/03/01 11:25:55;;;;;;;1.13;1.10;;;8.20;99.90;;;;;;5075175;28;20180;-63
2024/03/01 11:28:24;;;;;;;1.70;1.30;;;8.20;99.90;;;;;;5074460;28;20185;-62
2024/03/01 11:30:53;;;;;;;1.40;0.88;;;8.20;99.90;;;;;;5075048;28;20215;-63
2024/03/01 11:33:22;;;;;;;0.80;0.80;;;8.10;99.90;;;;;;5074938;28;20182;-62
2024/03/01 11:36:05;;;;;;;0.90;0.90;;;8.10;99.90;;;;;;5074977;28;20258;-63
2024/03/01 11:38:36;;;;;;;0.85;0.85;;;8.30;99.90;;;;;;5074413;28;20314;-63
2024/03/01 11:41:05;;;;;;;1.38;1.27;;;8.40;99.90;;;;;;5074836;28;20188;-62
2024/03/01 11:43:49;;;;;;;1.73;1.63;;;8.50;99.90;;;;;;5075045;28;20204;-62
2024/03/01 11:46:39;;;;;;;2.20;2.05;;;8.60;99.90;;;;;;5074791;28;20658;-63
2024/03/01 11:49:24;;;;;;;1.30;1.20;;;8.60;99.90;;;;;;5073826;28;20586;-62
2024/03/01 11:52:09;;;;;;;2.67;1.40;;;8.60;99.90;;;;;;5053888;28;20225;-62
2024/03/01 11:55:05;;;;;;;2.85;2.63;;;8.70;99.90;;;;;;5054053;28;20197;-63
2024/03/01 11:57:46;;;;;;;1.40;1.30;;;8.70;99.90;;;;;;5053599;28;20166;-61
2024/03/01 12:00:24;;;;;;;1.85;1.42;;;8.60;99.90;;;;;;5053939;28;20669;-62
2024/03/01 12:03:08;;;;;;;1.38;1.27;;;8.50;99.90;;;;;;5053742;28;20209;-62
2024/03/01 12:06:04;;;;;;;0.90;0.90;;;8.50;99.90;;;;;;5055769;28;20166;-62
2024/03/01 12:08:42;;;;;;;1.48;1.38;;;8.40;99.90;;;;;;5055027;28;20166;-62
2024/03/01 12:11:20;;;;;;;2.28;1.38;;;8.30;99.90;;;;;;5057668;28;20205;-62
2024/03/01 12:13:55;;;;;;;1.50;1.30;;;8.30;99.90;;;;;;5055698;28;20196;-60
2024/03/01 12:16:35;;;;;;;1.35;1.25;;;8.50;99.90;;;;;;5056752;28;20180;-61
2024/03/01 12:19:18;;;;;;;1.95;1.67;;;8.70;99.90;;;;;;5055823;28;20195;-62
2024/03/01 12:21:53;;;;;;;1.70;1.50;;;8.90;99.90;;;;;;5057279;28;20257;-62
2024/03/01 12:24:20;;;;;;;0.90;0.90;;;9.00;99.80;;;;;;5057584;28;20189;-62
2024/03/01 12:27:10;;;;;;;0.90;0.90;;;9.10;99.40;;;;;;5056053;28;20254;-62
2024/03/01 12:30:10;;;;;;;1.00;0.90;;;9.20;98.60;;;;;;5054757;28;20265;-61
2024/03/01 12:32:59;;;;;;;1.55;1.30;;;9.30;98.80;;;;;;5071235;28;20202;-60
2024/03/01 12:35:43;;;;;;;2.70;1.10;;;9.50;98.40;;;;;;5045964;28;20687;-60
2024/03/01 12:38:33;;;;;;;1.33;1.00;;;9.50;97.40;;;;;;5075735;28;20177;-60
2024/03/01 12:41:18;;;;;;;1.20;1.10;;;9.30;97.70;;;;;;5078826;28;20621;-60
2024/03/01 12:43:56;;;;;;;0.80;0.80;;;9.20;97.60;;;;;;5077761;28;20188;-60
2024/03/01 12:46:51;;;;;;;2.58;1.23;;;8.90;97.90;;;;;;5078690;28;20172;-60
2024/03/01 12:49:28;;;;;;;2.67;2.47;;;8.50;98.80;;;;;;5080427;28;20176;-60
2024/03/01 12:52:27;;;;;;;0.95;0.82;;;8.60;99.40;;;;;;5077851;28;20213;-60
2024/03/01 12:54:58;;;;;;;4.20;4.00;;;8.70;99.00;;;;;;5074920;28;20203;-60
2024/03/01 12:58:05;;;;;;;1.35;1.30;;;8.70;99.10;;;;;;5079175;28;20196;-60
2024/03/01 13:00:40;;;;;;;1.50;1.38;;;8.80;98.50;;;;;;5079792;28;20177;-59
2024/03/01 13:03:25;;;;;;;1.60;1.10;;;8.80;98.60;;;;;;5080409;28;20204;-60
2024/03/01 13:05:51;;;;;;;1.38;1.27;;;8.70;98.90;;;;;;5079989;28;20268;-60
2024/03/01 13:08:58;;;;;;;1.40;1.30;;;8.60;98.50;;;;;;5077627;28;20650;-60
2024/03/01 13:11:24;;;;;;;1.48;1.10;;;8.50;98.90;;;;;;5048497;28;20217;-60